sensor_id;sensor_type;location;lat;lon;timestamp;temperature;humidity
9837;DHT22;4957;51.412;6.724;2023-08-08T00:00:38;16.00;97.70
9837;DHT22;4957;51.412;6.724;2023-08-08T00:03:04;16.00;97.70
9837;DHT22;4957;51.412;6.724;2023-08-08T00:05:30;16.00;97.80
9837;DHT22;4957;51.412;6.724;2023-08-08T00:07:55;15.90;97.70
9837;DHT22;4957;51.412;6.724;2023-08-08T00:10:21;15.90;97.80
9837;DHT22;4957;51.412;6.724;2023-08-08T00:12:47;15.80;97.80
9837;DHT22;4957;51.412;6.724;2023-08-08T00:15:12;15.80;97.80
9837;DHT22;4957;51.412;6.724;2023-08-08T00:17:38;15.80;97.90
9837;DHT22;4957;51.412;6.724;2023-08-08T00:20:05;15.80;97.90
9837;DHT22;4957;51.412;6.724;2023-08-08T00:22:30;15.80;97.90
9837;DHT22;4957;51.412;6.724;2023-08-08T00:24:56;15.70;97.90
9837;DHT22;4957;51.412;6.724;2023-08-08T00:27:22;15.70;97.90
9837;DHT22;4957;51.412;6.724;2023-08-08T00:29:48;15.70;97.90
9837;DHT22;4957;51.412;6.724;2023-08-08T00:32:13;15.60;97.90
9837;DHT22;4957;51.412;6.724;2023-08-08T00:34:39;15.60;97.90
9837;DHT22;4957;51.412;6.724;2023-08-08T00:37:05;15.60;98.00
9837;DHT22;4957;51.412;6.724;2023-08-08T00:39:30;15.60;98.00
9837;DHT22;4957;51.412;6.724;2023-08-08T00:41:56;15.60;98.00
9837;DHT22;4957;51.412;6.724;2023-08-08T00:44:22;15.60;98.10
9837;DHT22;4957;51.412;6.724;2023-08-08T00:46:47;15.50;98.00
9837;DHT22;4957;51.412;6.724;2023-08-08T00:49:13;15.50;98.10
9837;DHT22;4957;51.412;6.724;2023-08-08T00:51:39;15.50;98.20
9837;DHT22;4957;51.412;6.724;2023-08-08T00:54:05;15.50;98.10
9837;DHT22;4957;51.412;6.724;2023-08-08T00:56:31;15.50;98.20
9837;DHT22;4957;51.412;6.724;2023-08-08T00:58:57;15.40;98.10
9837;DHT22;4957;51.412;6.724;2023-08-08T01:01:23;15.40;98.20
9837;DHT22;4957;51.412;6.724;2023-08-08T01:03:49;15.40;98.20
9837;DHT22;4957;51.412;6.724;2023-08-08T01:08:55;15.40;98.40
9837;DHT22;4957;51.412;6.724;2023-08-08T01:11:23;15.30;98.40
9837;DHT22;4957;51.412;6.724;2023-08-08T01:13:49;15.30;98.40
9837;DHT22;4957;51.412;6.724;2023-08-08T01:16:16;15.30;98.40
9837;DHT22;4957;51.412;6.724;2023-08-08T01:18:44;15.30;98.50
9837;DHT22;4957;51.412;6.724;2023-08-08T01:21:10;15.30;98.50
9837;DHT22;4957;51.412;6.724;2023-08-08T01:23:46;15.30;98.50
9837;DHT22;4957;51.412;6.724;2023-08-08T01:26:16;15.30;98.50
9837;DHT22;4957;51.412;6.724;2023-08-08T01:28:43;15.30;98.50
9837;DHT22;4957;51.412;6.724;2023-08-08T01:31:10;15.30;98.50
9837;DHT22;4957;51.412;6.724;2023-08-08T01:33:35;15.20;98.40
9837;DHT22;4957;51.412;6.724;2023-08-08T01:36:15;15.20;98.50
9837;DHT22;4957;51.412;6.724;2023-08-08T01:38:45;15.20;98.60
9837;DHT22;4957;51.412;6.724;2023-08-08T01:41:12;15.20;98.60
9837;DHT22;4957;51.412;6.724;2023-08-08T01:43:39;15.20;98.70
9837;DHT22;4957;51.412;6.724;2023-08-08T01:46:07;15.10;98.70
9837;DHT22;4957;51.412;6.724;2023-08-08T01:48:33;15.10;98.90
9837;DHT22;4957;51.412;6.724;2023-08-08T01:50:58;15.10;98.90
9837;DHT22;4957;51.412;6.724;2023-08-08T01:53:24;15.10;99.00
9837;DHT22;4957;51.412;6.724;2023-08-08T01:55:50;15.20;99.10
9837;DHT22;4957;51.412;6.724;2023-08-08T01:58:17;15.10;99.10
9837;DHT22;4957;51.412;6.724;2023-08-08T02:00:43;15.10;99.10
9837;DHT22;4957;51.412;6.724;2023-08-08T02:03:11;15.20;99.30
9837;DHT22;4957;51.412;6.724;2023-08-08T02:05:36;15.20;99.30
9837;DHT22;4957;51.412;6.724;2023-08-08T02:08:02;15.20;99.30
9837;DHT22;4957;51.412;6.724;2023-08-08T02:10:28;15.10;99.20
9837;DHT22;4957;51.412;6.724;2023-08-08T02:12:54;15.10;99.30
9837;DHT22;4957;51.412;6.724;2023-08-08T02:15:20;15.10;99.30
9837;DHT22;4957;51.412;6.724;2023-08-08T02:17:46;15.10;99.30
9837;DHT22;4957;51.412;6.724;2023-08-08T02:20:12;15.10;99.40
9837;DHT22;4957;51.412;6.724;2023-08-08T02:22:38;15.10;99.50
9837;DHT22;4957;51.412;6.724;2023-08-08T02:25:04;15.10;99.50
9837;DHT22;4957;51.412;6.724;2023-08-08T02:27:30;15.10;99.60
9837;DHT22;4957;51.412;6.724;2023-08-08T02:29:55;15.10;99.60
9837;DHT22;4957;51.412;6.724;2023-08-08T02:32:23;15.10;99.60
9837;DHT22;4957;51.412;6.724;2023-08-08T02:34:49;15.10;99.60
9837;DHT22;4957;51.412;6.724;2023-08-08T02:37:14;15.10;99.70
9837;DHT22;4957;51.412;6.724;2023-08-08T02:39:42;15.10;99.80
9837;DHT22;4957;51.412;6.724;2023-08-08T02:42:08;15.10;99.80
9837;DHT22;4957;51.412;6.724;2023-08-08T02:44:33;15.10;99.80
9837;DHT22;4957;51.412;6.724;2023-08-08T02:46:59;15.10;99.90
9837;DHT22;4957;51.412;6.724;2023-08-08T02:49:25;15.10;99.90
9837;DHT22;4957;51.412;6.724;2023-08-08T02:51:50;15.10;99.90
9837;DHT22;4957;51.412;6.724;2023-08-08T02:54:16;15.10;99.90
9837;DHT22;4957;51.412;6.724;2023-08-08T02:56:42;15.10;99.90
9837;DHT22;4957;51.412;6.724;2023-08-08T02:59:07;15.10;99.90
9837;DHT22;4957;51.412;6.724;2023-08-08T03:01:33;15.10;99.90
9837;DHT22;4957;51.412;6.724;2023-08-08T03:04:04;15.10;99.90
9837;DHT22;4957;51.412;6.724;2023-08-08T03:06:30;15.10;99.90
9837;DHT22;4957;51.412;6.724;2023-08-08T03:08:55;15.10;99.90
9837;DHT22;4957;51.412;6.724;2023-08-08T03:11:21;15.10;99.90
9837;DHT22;4957;51.412;6.724;2023-08-08T03:13:46;15.10;99.90
9837;DHT22;4957;51.412;6.724;2023-08-08T03:16:12;15.10;99.90
9837;DHT22;4957;51.412;6.724;2023-08-08T03:18:38;15.10;99.90
9837;DHT22;4957;51.412;6.724;2023-08-08T03:21:03;15.10;99.90
9837;DHT22;4957;51.412;6.724;2023-08-08T03:23:29;15.20;99.90
9837;DHT22;4957;51.412;6.724;2023-08-08T03:25:55;15.10;99.90
9837;DHT22;4957;51.412;6.724;2023-08-08T03:28:20;15.10;99.90
9837;DHT22;4957;51.412;6.724;2023-08-08T03:30:46;15.10;99.90
9837;DHT22;4957;51.412;6.724;2023-08-08T03:33:12;15.10;99.90
9837;DHT22;4957;51.412;6.724;2023-08-08T03:35:37;15.10;99.90
9837;DHT22;4957;51.412;6.724;2023-08-08T03:38:03;15.10;99.90
9837;DHT22;4957;51.412;6.724;2023-08-08T03:40:30;15.10;99.90
9837;DHT22;4957;51.412;6.724;2023-08-08T03:42:55;15.10;99.90
9837;DHT22;4957;51.412;6.724;2023-08-08T03:45:21;15.10;99.90
9837;DHT22;4957;51.412;6.724;2023-08-08T03:47:47;15.10;99.90
9837;DHT22;4957;51.412;6.724;2023-08-08T03:50:13;15.10;99.90
9837;DHT22;4957;51.412;6.724;2023-08-08T03:52:38;15.10;99.90
9837;DHT22;4957;51.412;6.724;2023-08-08T03:55:05;15.10;99.90
9837;DHT22;4957;51.412;6.724;2023-08-08T03:57:31;15.10;99.90
9837;DHT22;4957;51.412;6.724;2023-08-08T03:59:57;15.00;99.90
9837;DHT22;4957;51.412;6.724;2023-08-08T04:02:22;15.00;99.90
9837;DHT22;4957;51.412;6.724;2023-08-08T04:04:48;15.00;99.90
9837;DHT22;4957;51.412;6.724;2023-08-08T04:07:14;15.00;99.90
9837;DHT22;4957;51.412;6.724;2023-08-08T04:09:39;15.00;99.90
9837;DHT22;4957;51.412;6.724;2023-08-08T04:12:05;15.00;99.90
9837;DHT22;4957;51.412;6.724;2023-08-08T04:14:31;14.90;99.90
9837;DHT22;4957;51.412;6.724;2023-08-08T04:16:57;15.00;99.90
9837;DHT22;4957;51.412;6.724;2023-08-08T04:19:22;15.00;99.90
9837;DHT22;4957;51.412;6.724;2023-08-08T04:21:48;14.90;99.90
9837;DHT22;4957;51.412;6.724;2023-08-08T04:24:14;15.00;99.90
9837;DHT22;4957;51.412;6.724;2023-08-08T04:26:39;15.00;99.90
9837;DHT22;4957;51.412;6.724;2023-08-08T04:29:05;14.90;99.90
9837;DHT22;4957;51.412;6.724;2023-08-08T04:31:31;15.00;99.90
9837;DHT22;4957;51.412;6.724;2023-08-08T04:33:57;14.90;99.90
9837;DHT22;4957;51.412;6.724;2023-08-08T04:36:29;14.90;99.90
9837;DHT22;4957;51.412;6.724;2023-08-08T04:38:55;14.90;99.90
9837;DHT22;4957;51.412;6.724;2023-08-08T04:41:21;14.90;99.90
9837;DHT22;4957;51.412;6.724;2023-08-08T04:43:46;15.00;99.90
9837;DHT22;4957;51.412;6.724;2023-08-08T04:46:12;14.90;99.90
9837;DHT22;4957;51.412;6.724;2023-08-08T04:48:38;14.90;99.90
9837;DHT22;4957;51.412;6.724;2023-08-08T04:51:05;14.90;99.90
9837;DHT22;4957;51.412;6.724;2023-08-08T04:53:31;14.90;99.90
9837;DHT22;4957;51.412;6.724;2023-08-08T04:55:56;14.90;99.90
9837;DHT22;4957;51.412;6.724;2023-08-08T04:58:22;14.90;99.90
9837;DHT22;4957;51.412;6.724;2023-08-08T05:00:48;14.90;99.90
9837;DHT22;4957;51.412;6.724;2023-08-08T05:03:13;14.90;99.90
9837;DHT22;4957;51.412;6.724;2023-08-08T05:05:40;14.90;99.90
9837;DHT22;4957;51.412;6.724;2023-08-08T05:08:06;14.90;99.90
9837;DHT22;4957;51.412;6.724;2023-08-08T05:10:31;14.90;99.90
9837;DHT22;4957;51.412;6.724;2023-08-08T05:12:57;15.00;99.90
9837;DHT22;4957;51.412;6.724;2023-08-08T05:15:23;14.90;99.90
9837;DHT22;4957;51.412;6.724;2023-08-08T05:17:49;14.90;99.90
9837;DHT22;4957;51.412;6.724;2023-08-08T05:20:14;15.00;99.90
9837;DHT22;4957;51.412;6.724;2023-08-08T05:22:41;15.00;99.90
9837;DHT22;4957;51.412;6.724;2023-08-08T05:25:07;15.00;99.90
9837;DHT22;4957;51.412;6.724;2023-08-08T05:27:33;15.00;99.90
9837;DHT22;4957;51.412;6.724;2023-08-08T05:29:58;15.00;99.90
9837;DHT22;4957;51.412;6.724;2023-08-08T05:32:24;15.10;99.90
9837;DHT22;4957;51.412;6.724;2023-08-08T05:34:51;15.10;99.90
9837;DHT22;4957;51.412;6.724;2023-08-08T05:37:16;15.10;99.90
9837;DHT22;4957;51.412;6.724;2023-08-08T05:39:42;15.10;99.90
9837;DHT22;4957;51.412;6.724;2023-08-08T05:42:08;15.10;99.90
9837;DHT22;4957;51.412;6.724;2023-08-08T05:44:33;15.10;99.90
9837;DHT22;4957;51.412;6.724;2023-08-08T05:46:59;15.20;99.90
9837;DHT22;4957;51.412;6.724;2023-08-08T05:49:25;15.20;99.90
9837;DHT22;4957;51.412;6.724;2023-08-08T05:51:50;15.20;99.90
9837;DHT22;4957;51.412;6.724;2023-08-08T05:54:16;15.20;99.90
9837;DHT22;4957;51.412;6.724;2023-08-08T05:56:41;15.20;99.90
9837;DHT22;4957;51.412;6.724;2023-08-08T05:59:07;15.20;99.90
9837;DHT22;4957;51.412;6.724;2023-08-08T06:01:33;15.20;99.90
9837;DHT22;4957;51.412;6.724;2023-08-08T06:04:00;15.30;99.90
9837;DHT22;4957;51.412;6.724;2023-08-08T06:06:26;15.30;99.90
9837;DHT22;4957;51.412;6.724;2023-08-08T06:08:52;15.30;99.90
9837;DHT22;4957;51.412;6.724;2023-08-08T06:11:18;15.40;99.90
9837;DHT22;4957;51.412;6.724;2023-08-08T06:13:43;15.40;99.90
9837;DHT22;4957;51.412;6.724;2023-08-08T06:16:09;15.40;99.90
9837;DHT22;4957;51.412;6.724;2023-08-08T06:18:35;15.40;99.90
9837;DHT22;4957;51.412;6.724;2023-08-08T06:21:01;15.40;99.90
9837;DHT22;4957;51.412;6.724;2023-08-08T06:23:27;15.50;99.90
9837;DHT22;4957;51.412;6.724;2023-08-08T06:25:53;15.50;99.90
9837;DHT22;4957;51.412;6.724;2023-08-08T06:28:19;15.50;99.90
9837;DHT22;4957;51.412;6.724;2023-08-08T06:30:44;15.50;99.90
9837;DHT22;4957;51.412;6.724;2023-08-08T06:33:10;15.60;99.90
9837;DHT22;4957;51.412;6.724;2023-08-08T06:35:36;15.60;99.90
9837;DHT22;4957;51.412;6.724;2023-08-08T06:38:02;15.70;99.90
9837;DHT22;4957;51.412;6.724;2023-08-08T06:40:28;15.70;99.90
9837;DHT22;4957;51.412;6.724;2023-08-08T06:42:54;15.80;99.90
9837;DHT22;4957;51.412;6.724;2023-08-08T06:45:20;15.80;99.90
9837;DHT22;4957;51.412;6.724;2023-08-08T06:47:46;15.90;99.90
9837;DHT22;4957;51.412;6.724;2023-08-08T06:50:12;15.90;99.90
9837;DHT22;4957;51.412;6.724;2023-08-08T06:52:38;16.00;99.90
9837;DHT22;4957;51.412;6.724;2023-08-08T06:55:04;16.00;99.90
9837;DHT22;4957;51.412;6.724;2023-08-08T06:57:32;16.10;99.90
9837;DHT22;4957;51.412;6.724;2023-08-08T06:59:58;16.10;99.90
9837;DHT22;4957;51.412;6.724;2023-08-08T07:02:24;16.20;99.90
9837;DHT22;4957;51.412;6.724;2023-08-08T07:04:50;16.30;99.90
9837;DHT22;4957;51.412;6.724;2023-08-08T07:07:15;16.40;99.90
9837;DHT22;4957;51.412;6.724;2023-08-08T07:09:42;16.40;99.90
9837;DHT22;4957;51.412;6.724;2023-08-08T07:12:08;16.50;99.90
9837;DHT22;4957;51.412;6.724;2023-08-08T07:14:33;16.60;99.90
9837;DHT22;4957;51.412;6.724;2023-08-08T07:16:59;16.70;99.90
9837;DHT22;4957;51.412;6.724;2023-08-08T07:19:25;16.70;99.90
9837;DHT22;4957;51.412;6.724;2023-08-08T07:21:51;16.80;99.90
9837;DHT22;4957;51.412;6.724;2023-08-08T07:24:17;16.90;99.90
9837;DHT22;4957;51.412;6.724;2023-08-08T07:26:43;17.00;99.90
9837;DHT22;4957;51.412;6.724;2023-08-08T07:29:09;17.10;99.90
9837;DHT22;4957;51.412;6.724;2023-08-08T07:31:35;17.20;99.90
9837;DHT22;4957;51.412;6.724;2023-08-08T07:34:00;17.30;99.90
9837;DHT22;4957;51.412;6.724;2023-08-08T07:36:26;17.40;99.90
9837;DHT22;4957;51.412;6.724;2023-08-08T07:38:52;17.50;99.90
9837;DHT22;4957;51.412;6.724;2023-08-08T07:41:17;17.60;99.90
9837;DHT22;4957;51.412;6.724;2023-08-08T07:43:46;17.70;99.90
9837;DHT22;4957;51.412;6.724;2023-08-08T07:46:12;17.80;99.90
9837;DHT22;4957;51.412;6.724;2023-08-08T07:48:38;17.90;99.90
9837;DHT22;4957;51.412;6.724;2023-08-08T07:51:04;18.00;99.90
9837;DHT22;4957;51.412;6.724;2023-08-08T07:53:29;18.20;99.90
9837;DHT22;4957;51.412;6.724;2023-08-08T07:55:55;18.30;99.90
9837;DHT22;4957;51.412;6.724;2023-08-08T07:58:20;18.40;99.90
9837;DHT22;4957;51.412;6.724;2023-08-08T08:00:48;18.50;99.90
9837;DHT22;4957;51.412;6.724;2023-08-08T08:03:14;18.60;99.90
9837;DHT22;4957;51.412;6.724;2023-08-08T08:05:39;18.70;99.90
9837;DHT22;4957;51.412;6.724;2023-08-08T08:08:05;18.80;99.90
9837;DHT22;4957;51.412;6.724;2023-08-08T08:10:31;18.90;99.90
9837;DHT22;4957;51.412;6.724;2023-08-08T08:12:56;19.00;99.90
9837;DHT22;4957;51.412;6.724;2023-08-08T08:15:24;19.00;99.90
9837;DHT22;4957;51.412;6.724;2023-08-08T08:17:50;19.10;99.90
9837;DHT22;4957;51.412;6.724;2023-08-08T08:20:16;19.30;99.90
9837;DHT22;4957;51.412;6.724;2023-08-08T08:22:41;19.40;99.90
9837;DHT22;4957;51.412;6.724;2023-08-08T08:25:07;19.50;99.90
9837;DHT22;4957;51.412;6.724;2023-08-08T08:27:38;19.60;99.90
9837;DHT22;4957;51.412;6.724;2023-08-08T08:30:04;19.70;99.90
9837;DHT22;4957;51.412;6.724;2023-08-08T08:32:34;19.80;99.90
9837;DHT22;4957;51.412;6.724;2023-08-08T08:35:01;19.90;99.90
9837;DHT22;4957;51.412;6.724;2023-08-08T08:37:29;20.00;99.90
9837;DHT22;4957;51.412;6.724;2023-08-08T08:39:55;20.10;99.90
9837;DHT22;4957;51.412;6.724;2023-08-08T08:42:22;20.20;99.90
9837;DHT22;4957;51.412;6.724;2023-08-08T08:44:49;20.30;99.90
9837;DHT22;4957;51.412;6.724;2023-08-08T08:47:17;20.30;99.90
9837;DHT22;4957;51.412;6.724;2023-08-08T08:49:45;20.40;99.90
9837;DHT22;4957;51.412;6.724;2023-08-08T08:52:17;20.50;99.90
9837;DHT22;4957;51.412;6.724;2023-08-08T08:54:43;20.60;99.90
9837;DHT22;4957;51.412;6.724;2023-08-08T08:57:09;20.70;99.90
9837;DHT22;4957;51.412;6.724;2023-08-08T08:59:35;20.90;99.90
9837;DHT22;4957;51.412;6.724;2023-08-08T09:02:01;21.00;99.80
9837;DHT22;4957;51.412;6.724;2023-08-08T09:04:28;21.10;99.50
9837;DHT22;4957;51.412;6.724;2023-08-08T09:06:55;21.20;99.30
9837;DHT22;4957;51.412;6.724;2023-08-08T09:09:21;21.30;99.00
9837;DHT22;4957;51.412;6.724;2023-08-08T09:11:50;21.50;98.70
9837;DHT22;4957;51.412;6.724;2023-08-08T09:14:20;21.60;98.50
9837;DHT22;4957;51.412;6.724;2023-08-08T09:16:47;21.70;98.10
9837;DHT22;4957;51.412;6.724;2023-08-08T09:19:14;21.80;97.90
9837;DHT22;4957;51.412;6.724;2023-08-08T09:21:40;21.90;97.50
9837;DHT22;4957;51.412;6.724;2023-08-08T09:24:06;22.00;97.20
9837;DHT22;4957;51.412;6.724;2023-08-08T09:26:33;22.10;96.90
9837;DHT22;4957;51.412;6.724;2023-08-08T09:29:00;22.20;96.60
9837;DHT22;4957;51.412;6.724;2023-08-08T09:31:27;22.20;96.40
9837;DHT22;4957;51.412;6.724;2023-08-08T09:34:01;22.30;96.30
9837;DHT22;4957;51.412;6.724;2023-08-08T09:36:27;22.40;95.70
9837;DHT22;4957;51.412;6.724;2023-08-08T09:38:54;22.40;95.60
9837;DHT22;4957;51.412;6.724;2023-08-08T09:41:20;22.50;95.30
9837;DHT22;4957;51.412;6.724;2023-08-08T09:43:51;22.50;95.00
9837;DHT22;4957;51.412;6.724;2023-08-08T09:46:21;22.60;94.70
9837;DHT22;4957;51.412;6.724;2023-08-08T09:48:48;22.60;94.60
9837;DHT22;4957;51.412;6.724;2023-08-08T09:51:14;22.70;94.50
9837;DHT22;4957;51.412;6.724;2023-08-08T09:53:40;22.80;94.30
9837;DHT22;4957;51.412;6.724;2023-08-08T09:56:07;22.90;94.00
9837;DHT22;4957;51.412;6.724;2023-08-08T09:58:33;22.90;93.70
9837;DHT22;4957;51.412;6.724;2023-08-08T10:00:59;22.90;93.40
9837;DHT22;4957;51.412;6.724;2023-08-08T10:03:25;23.00;93.40
9837;DHT22;4957;51.412;6.724;2023-08-08T10:05:55;23.00;93.40
9837;DHT22;4957;51.412;6.724;2023-08-08T10:08:20;23.00;93.10
9837;DHT22;4957;51.412;6.724;2023-08-08T10:10:48;23.10;93.10
9837;DHT22;4957;51.412;6.724;2023-08-08T10:13:26;23.20;92.90
9837;DHT22;4957;51.412;6.724;2023-08-08T10:15:52;23.30;92.90
9837;DHT22;4957;51.412;6.724;2023-08-08T10:18:21;23.40;93.10
9837;DHT22;4957;51.412;6.724;2023-08-08T10:20:48;23.60;92.80
9837;DHT22;4957;51.412;6.724;2023-08-08T10:23:15;23.70;92.30
9837;DHT22;4957;51.412;6.724;2023-08-08T10:25:50;23.80;92.40
9837;DHT22;4957;51.412;6.724;2023-08-08T10:28:19;24.00;91.80
9837;DHT22;4957;51.412;6.724;2023-08-08T10:36:04;24.40;90.60
9837;DHT22;4957;51.412;6.724;2023-08-08T10:38:49;24.40;90.20
9837;DHT22;4957;51.412;6.724;2023-08-08T10:41:21;24.60;90.00
9837;DHT22;4957;51.412;6.724;2023-08-08T10:43:51;24.70;90.00
9837;DHT22;4957;51.412;6.724;2023-08-08T10:46:24;24.90;89.40
9837;DHT22;4957;51.412;6.724;2023-08-08T10:48:51;25.00;88.70
9837;DHT22;4957;51.412;6.724;2023-08-08T10:51:17;25.10;88.40
9837;DHT22;4957;51.412;6.724;2023-08-08T10:53:43;25.20;87.70
9837;DHT22;4957;51.412;6.724;2023-08-08T10:56:13;25.40;87.20
9837;DHT22;4957;51.412;6.724;2023-08-08T10:58:46;25.40;86.50
9837;DHT22;4957;51.412;6.724;2023-08-08T11:01:12;25.50;85.40
9837;DHT22;4957;51.412;6.724;2023-08-08T11:03:40;25.50;85.60
9837;DHT22;4957;51.412;6.724;2023-08-08T11:06:07;25.50;84.80
9837;DHT22;4957;51.412;6.724;2023-08-08T11:08:34;25.40;84.10
9837;DHT22;4957;51.412;6.724;2023-08-08T11:11:01;25.40;83.90
9837;DHT22;4957;51.412;6.724;2023-08-08T11:13:27;25.40;83.30
9837;DHT22;4957;51.412;6.724;2023-08-08T11:15:53;25.40;83.20
9837;DHT22;4957;51.412;6.724;2023-08-08T11:18:19;25.40;83.10
9837;DHT22;4957;51.412;6.724;2023-08-08T11:20:45;25.40;82.80
9837;DHT22;4957;51.412;6.724;2023-08-08T11:23:11;25.40;82.90
9837;DHT22;4957;51.412;6.724;2023-08-08T11:25:40;25.50;83.10
9837;DHT22;4957;51.412;6.724;2023-08-08T11:28:10;25.50;82.70
9837;DHT22;4957;51.412;6.724;2023-08-08T11:30:45;25.50;83.00
9837;DHT22;4957;51.412;6.724;2023-08-08T11:33:13;25.60;83.10
9837;DHT22;4957;51.412;6.724;2023-08-08T11:35:44;25.70;83.20
9837;DHT22;4957;51.412;6.724;2023-08-08T11:38:12;25.80;83.40
9837;DHT22;4957;51.412;6.724;2023-08-08T11:40:39;25.90;82.80
9837;DHT22;4957;51.412;6.724;2023-08-08T11:43:05;26.00;82.20
9837;DHT22;4957;51.412;6.724;2023-08-08T11:45:31;26.10;81.80
9837;DHT22;4957;51.412;6.724;2023-08-08T11:47:59;26.10;81.50
9837;DHT22;4957;51.412;6.724;2023-08-08T11:50:25;26.20;81.80
9837;DHT22;4957;51.412;6.724;2023-08-08T11:52:54;26.20;80.80
9837;DHT22;4957;51.412;6.724;2023-08-08T11:55:21;26.30;81.20
9837;DHT22;4957;51.412;6.724;2023-08-08T11:57:54;26.40;80.80
9837;DHT22;4957;51.412;6.724;2023-08-08T12:00:29;26.50;80.60
9837;DHT22;4957;51.412;6.724;2023-08-08T12:02:56;26.50;79.10
9837;DHT22;4957;51.412;6.724;2023-08-08T12:05:22;26.50;80.00
9837;DHT22;4957;51.412;6.724;2023-08-08T12:07:48;26.60;79.10
9837;DHT22;4957;51.412;6.724;2023-08-08T12:10:20;26.60;78.70
9837;DHT22;4957;51.412;6.724;2023-08-08T12:12:47;26.60;78.10
9837;DHT22;4957;51.412;6.724;2023-08-08T12:15:17;26.70;77.30
9837;DHT22;4957;51.412;6.724;2023-08-08T12:17:43;26.70;78.20
9837;DHT22;4957;51.412;6.724;2023-08-08T12:20:09;26.90;76.80
9837;DHT22;4957;51.412;6.724;2023-08-08T12:22:35;27.00;75.80
9837;DHT22;4957;51.412;6.724;2023-08-08T12:25:01;27.00;75.20
9837;DHT22;4957;51.412;6.724;2023-08-08T12:27:29;27.10;74.60
9837;DHT22;4957;51.412;6.724;2023-08-08T12:29:54;27.30;74.10
9837;DHT22;4957;51.412;6.724;2023-08-08T12:32:21;27.30;73.40
9837;DHT22;4957;51.412;6.724;2023-08-08T12:34:49;27.40;73.30
9837;DHT22;4957;51.412;6.724;2023-08-08T12:37:15;27.50;73.40
9837;DHT22;4957;51.412;6.724;2023-08-08T12:39:41;27.50;72.50
9837;DHT22;4957;51.412;6.724;2023-08-08T12:42:06;27.60;72.00
9837;DHT22;4957;51.412;6.724;2023-08-08T12:44:32;27.80;72.00
9837;DHT22;4957;51.412;6.724;2023-08-08T12:46:58;27.90;71.80
9837;DHT22;4957;51.412;6.724;2023-08-08T12:49:24;28.00;70.90
9837;DHT22;4957;51.412;6.724;2023-08-08T12:51:50;28.10;70.90
9837;DHT22;4957;51.412;6.724;2023-08-08T12:54:16;28.20;70.30
9837;DHT22;4957;51.412;6.724;2023-08-08T12:56:42;28.30;69.50
9837;DHT22;4957;51.412;6.724;2023-08-08T12:59:09;28.40;69.90
9837;DHT22;4957;51.412;6.724;2023-08-08T13:01:34;28.60;69.80
9837;DHT22;4957;51.412;6.724;2023-08-08T13:04:00;28.70;70.90
9837;DHT22;4957;51.412;6.724;2023-08-08T13:06:26;28.70;68.00
9837;DHT22;4957;51.412;6.724;2023-08-08T13:08:52;28.80;66.90
9837;DHT22;4957;51.412;6.724;2023-08-08T13:11:18;28.90;66.50
9837;DHT22;4957;51.412;6.724;2023-08-08T13:13:43;28.90;66.00
9837;DHT22;4957;51.412;6.724;2023-08-08T13:16:09;29.00;66.40
9837;DHT22;4957;51.412;6.724;2023-08-08T13:18:36;29.00;65.30
9837;DHT22;4957;51.412;6.724;2023-08-08T13:21:02;29.00;66.70
9837;DHT22;4957;51.412;6.724;2023-08-08T13:23:28;29.00;66.10
9837;DHT22;4957;51.412;6.724;2023-08-08T13:25:54;29.00;65.00
9837;DHT22;4957;51.412;6.724;2023-08-08T13:28:20;29.00;63.70
9837;DHT22;4957;51.412;6.724;2023-08-08T13:30:45;28.90;63.30
9837;DHT22;4957;51.412;6.724;2023-08-08T13:33:11;29.00;67.30
9837;DHT22;4957;51.412;6.724;2023-08-08T13:35:36;28.90;63.30
9837;DHT22;4957;51.412;6.724;2023-08-08T13:38:02;28.90;62.70
9837;DHT22;4957;51.412;6.724;2023-08-08T13:40:28;28.90;62.60
9837;DHT22;4957;51.412;6.724;2023-08-08T13:42:53;28.90;62.40
9837;DHT22;4957;51.412;6.724;2023-08-08T13:45:20;28.90;61.10
9837;DHT22;4957;51.412;6.724;2023-08-08T13:47:46;28.90;64.60
9837;DHT22;4957;51.412;6.724;2023-08-08T13:50:13;28.90;62.80
9837;DHT22;4957;51.412;6.724;2023-08-08T13:52:40;28.90;63.60
9837;DHT22;4957;51.412;6.724;2023-08-08T13:55:06;28.80;63.60
9837;DHT22;4957;51.412;6.724;2023-08-08T13:57:32;28.80;61.70
9837;DHT22;4957;51.412;6.724;2023-08-08T13:59:58;28.70;63.90
9837;DHT22;4957;51.412;6.724;2023-08-08T14:02:23;28.70;62.20
9837;DHT22;4957;51.412;6.724;2023-08-08T14:04:49;28.70;61.20
9837;DHT22;4957;51.412;6.724;2023-08-08T14:07:15;28.60;61.20
9837;DHT22;4957;51.412;6.724;2023-08-08T14:09:40;28.60;61.70
9837;DHT22;4957;51.412;6.724;2023-08-08T14:12:06;28.50;60.00
9837;DHT22;4957;51.412;6.724;2023-08-08T14:14:32;28.50;59.90
9837;DHT22;4957;51.412;6.724;2023-08-08T14:16:58;28.50;59.80
9837;DHT22;4957;51.412;6.724;2023-08-08T14:19:23;28.40;59.60
9837;DHT22;4957;51.412;6.724;2023-08-08T14:21:49;28.40;62.00
9837;DHT22;4957;51.412;6.724;2023-08-08T14:24:15;28.30;59.70
9837;DHT22;4957;51.412;6.724;2023-08-08T14:26:41;28.30;60.90
9837;DHT22;4957;51.412;6.724;2023-08-08T14:29:06;28.30;60.30
9837;DHT22;4957;51.412;6.724;2023-08-08T14:31:32;28.20;59.70
9837;DHT22;4957;51.412;6.724;2023-08-08T14:33:58;28.10;60.10
9837;DHT22;4957;51.412;6.724;2023-08-08T14:36:23;28.10;61.70
9837;DHT22;4957;51.412;6.724;2023-08-08T14:38:49;28.00;60.10
9837;DHT22;4957;51.412;6.724;2023-08-08T14:41:15;27.90;59.40
9837;DHT22;4957;51.412;6.724;2023-08-08T14:43:40;27.80;59.90
9837;DHT22;4957;51.412;6.724;2023-08-08T14:46:06;27.80;59.80
9837;DHT22;4957;51.412;6.724;2023-08-08T14:48:32;27.70;60.00
9837;DHT22;4957;51.412;6.724;2023-08-08T14:50:59;27.60;59.90
9837;DHT22;4957;51.412;6.724;2023-08-08T14:53:25;27.50;61.80
9837;DHT22;4957;51.412;6.724;2023-08-08T14:55:51;27.50;60.80
9837;DHT22;4957;51.412;6.724;2023-08-08T14:58:16;27.40;63.40
9837;DHT22;4957;51.412;6.724;2023-08-08T15:00:42;27.40;61.90
9837;DHT22;4957;51.412;6.724;2023-08-08T15:03:08;27.30;60.80
9837;DHT22;4957;51.412;6.724;2023-08-08T15:05:33;27.20;59.90
9837;DHT22;4957;51.412;6.724;2023-08-08T15:07:59;27.20;59.70
9837;DHT22;4957;51.412;6.724;2023-08-08T15:10:25;27.10;60.80
9837;DHT22;4957;51.412;6.724;2023-08-08T15:12:51;27.00;60.80
9837;DHT22;4957;51.412;6.724;2023-08-08T15:15:16;27.00;61.10
9837;DHT22;4957;51.412;6.724;2023-08-08T15:17:45;26.90;59.90
9837;DHT22;4957;51.412;6.724;2023-08-08T15:20:11;26.90;59.40
9837;DHT22;4957;51.412;6.724;2023-08-08T15:22:37;26.90;59.60
9837;DHT22;4957;51.412;6.724;2023-08-08T15:25:03;26.80;58.70
9837;DHT22;4957;51.412;6.724;2023-08-08T15:27:29;26.80;59.40
9837;DHT22;4957;51.412;6.724;2023-08-08T15:29:55;26.80;58.80
9837;DHT22;4957;51.412;6.724;2023-08-08T15:32:21;26.70;58.50
9837;DHT22;4957;51.412;6.724;2023-08-08T15:34:47;26.70;58.90
9837;DHT22;4957;51.412;6.724;2023-08-08T15:37:12;26.70;58.60
9837;DHT22;4957;51.412;6.724;2023-08-08T15:39:39;26.60;58.60
9837;DHT22;4957;51.412;6.724;2023-08-08T15:42:05;26.60;58.30
9837;DHT22;4957;51.412;6.724;2023-08-08T15:44:31;26.50;58.40
9837;DHT22;4957;51.412;6.724;2023-08-08T15:46:57;26.50;59.10
9837;DHT22;4957;51.412;6.724;2023-08-08T15:49:23;26.50;58.60
9837;DHT22;4957;51.412;6.724;2023-08-08T15:51:49;26.40;59.40
9837;DHT22;4957;51.412;6.724;2023-08-08T15:54:15;26.30;60.00
9837;DHT22;4957;51.412;6.724;2023-08-08T15:56:41;26.30;60.10
9837;DHT22;4957;51.412;6.724;2023-08-08T15:59:06;26.30;59.80
9837;DHT22;4957;51.412;6.724;2023-08-08T16:01:33;26.20;59.70
9837;DHT22;4957;51.412;6.724;2023-08-08T16:03:58;26.30;60.20